sensor_id;sensor_type;location;lat;lon;timestamp;temperature;humidity
45843;DHT22;31563;51.744;8.252;2023-11-21T00:01:28;18.00;65.80
45843;DHT22;31563;51.744;8.252;2023-11-21T00:03:56;18.00;66.00
45843;DHT22;31563;51.744;8.252;2023-11-21T00:06:24;18.00;65.90
45843;DHT22;31563;51.744;8.252;2023-11-21T00:08:52;17.90;66.00
45843;DHT22;31563;51.744;8.252;2023-11-21T00:11:22;17.90;66.10
45843;DHT22;31563;51.744;8.252;2023-11-21T00:13:51;17.90;66.10
45843;DHT22;31563;51.744;8.252;2023-11-21T00:16:19;17.80;66.20
45843;DHT22;31563;51.744;8.252;2023-11-21T00:18:47;17.80;66.30
45843;DHT22;31563;51.744;8.252;2023-11-21T00:21:14;17.70;66.40
45843;DHT22;31563;51.744;8.252;2023-11-21T00:23:43;17.70;66.60
45843;DHT22;31563;51.744;8.252;2023-11-21T00:26:11;17.80;66.80
45843;DHT22;31563;51.744;8.252;2023-11-21T00:28:40;17.80;66.70
45843;DHT22;31563;51.744;8.252;2023-11-21T00:31:08;17.80;66.40
45843;DHT22;31563;51.744;8.252;2023-11-21T00:33:36;17.80;66.40
45843;DHT22;31563;51.744;8.252;2023-11-21T00:36:05;17.90;66.20
45843;DHT22;31563;51.744;8.252;2023-11-21T00:38:36;17.90;66.10
45843;DHT22;31563;51.744;8.252;2023-11-21T00:41:06;17.90;66.10
45843;DHT22;31563;51.744;8.252;2023-11-21T00:43:34;17.90;66.30
45843;DHT22;31563;51.744;8.252;2023-11-21T00:46:06;17.90;66.00
45843;DHT22;31563;51.744;8.252;2023-11-21T00:48:34;17.90;66.10
45843;DHT22;31563;51.744;8.252;2023-11-21T00:51:02;17.90;66.10
45843;DHT22;31563;51.744;8.252;2023-11-21T00:53:30;17.90;66.10
45843;DHT22;31563;51.744;8.252;2023-11-21T00:55:58;17.90;66.00
45843;DHT22;31563;51.744;8.252;2023-11-21T00:58:27;17.90;65.90
45843;DHT22;31563;51.744;8.252;2023-11-21T01:00:54;17.90;65.90
45843;DHT22;31563;51.744;8.252;2023-11-21T01:03:24;17.90;65.90
45843;DHT22;31563;51.744;8.252;2023-11-21T01:05:52;17.90;65.80
45843;DHT22;31563;51.744;8.252;2023-11-21T01:08:20;17.90;65.80
45843;DHT22;31563;51.744;8.252;2023-11-21T01:10:48;17.90;65.80
45843;DHT22;31563;51.744;8.252;2023-11-21T01:13:16;17.90;65.70
45843;DHT22;31563;51.744;8.252;2023-11-21T01:15:44;17.90;65.70
45843;DHT22;31563;51.744;8.252;2023-11-21T01:18:12;17.90;65.80
45843;DHT22;31563;51.744;8.252;2023-11-21T01:20:41;17.80;65.70
45843;DHT22;31563;51.744;8.252;2023-11-21T01:23:09;17.90;65.90
45843;DHT22;31563;51.744;8.252;2023-11-21T01:25:36;17.80;65.80
45843;DHT22;31563;51.744;8.252;2023-11-21T01:28:05;17.80;65.70
45843;DHT22;31563;51.744;8.252;2023-11-21T01:30:33;17.70;65.90
45843;DHT22;31563;51.744;8.252;2023-11-21T01:33:02;17.70;65.90
45843;DHT22;31563;51.744;8.252;2023-11-21T01:35:30;17.70;65.90
45843;DHT22;31563;51.744;8.252;2023-11-21T01:37:59;17.70;66.10
45843;DHT22;31563;51.744;8.252;2023-11-21T01:40:27;17.70;66.10
45843;DHT22;31563;51.744;8.252;2023-11-21T01:42:55;17.70;66.10
45843;DHT22;31563;51.744;8.252;2023-11-21T01:45:24;17.70;66.10
45843;DHT22;31563;51.744;8.252;2023-11-21T01:47:52;17.70;66.00
45843;DHT22;31563;51.744;8.252;2023-11-21T01:50:24;17.70;65.90
45843;DHT22;31563;51.744;8.252;2023-11-21T01:52:52;17.70;66.00
45843;DHT22;31563;51.744;8.252;2023-11-21T01:55:22;17.70;65.90
45843;DHT22;31563;51.744;8.252;2023-11-21T01:57:55;17.70;66.00
45843;DHT22;31563;51.744;8.252;2023-11-21T02:00:23;17.70;66.00
45843;DHT22;31563;51.744;8.252;2023-11-21T02:02:52;17.70;65.90
45843;DHT22;31563;51.744;8.252;2023-11-21T02:05:20;17.70;65.90
45843;DHT22;31563;51.744;8.252;2023-11-21T02:07:49;17.70;65.90
45843;DHT22;31563;51.744;8.252;2023-11-21T02:10:19;17.70;65.90
45843;DHT22;31563;51.744;8.252;2023-11-21T02:12:51;17.70;65.80
45843;DHT22;31563;51.744;8.252;2023-11-21T02:15:19;17.70;65.80
45843;DHT22;31563;51.744;8.252;2023-11-21T02:17:48;17.70;65.80
45843;DHT22;31563;51.744;8.252;2023-11-21T02:20:19;17.70;65.80
45843;DHT22;31563;51.744;8.252;2023-11-21T02:22:51;17.60;65.80
45843;DHT22;31563;51.744;8.252;2023-11-21T02:25:22;17.70;65.90
45843;DHT22;31563;51.744;8.252;2023-11-21T02:27:50;17.60;65.90
45843;DHT22;31563;51.744;8.252;2023-11-21T02:30:18;17.60;65.90
45843;DHT22;31563;51.744;8.252;2023-11-21T02:32:46;17.60;65.90
45843;DHT22;31563;51.744;8.252;2023-11-21T02:35:15;17.60;65.90
45843;DHT22;31563;51.744;8.252;2023-11-21T02:37:43;17.60;65.90
45843;DHT22;31563;51.744;8.252;2023-11-21T02:40:13;17.60;65.90
45843;DHT22;31563;51.744;8.252;2023-11-21T02:42:44;17.60;66.00
45843;DHT22;31563;51.744;8.252;2023-11-21T02:45:13;17.50;66.00
45843;DHT22;31563;51.744;8.252;2023-11-21T02:47:43;17.50;66.00
45843;DHT22;31563;51.744;8.252;2023-11-21T02:50:11;17.60;66.00
45843;DHT22;31563;51.744;8.252;2023-11-21T02:52:39;17.50;66.00
45843;DHT22;31563;51.744;8.252;2023-11-21T02:55:08;17.50;66.00
45843;DHT22;31563;51.744;8.252;2023-11-21T02:57:37;17.50;65.90
45843;DHT22;31563;51.744;8.252;2023-11-21T03:00:06;17.60;66.00
45843;DHT22;31563;51.744;8.252;2023-11-21T03:02:35;17.60;65.90
45843;DHT22;31563;51.744;8.252;2023-11-21T03:05:06;17.60;65.90
45843;DHT22;31563;51.744;8.252;2023-11-21T03:07:36;17.50;65.90
45843;DHT22;31563;51.744;8.252;2023-11-21T03:10:05;17.60;65.90
45843;DHT22;31563;51.744;8.252;2023-11-21T03:12:37;17.60;65.90
45843;DHT22;31563;51.744;8.252;2023-11-21T03:15:07;17.60;65.90
45843;DHT22;31563;51.744;8.252;2023-11-21T03:17:35;17.60;65.90
45843;DHT22;31563;51.744;8.252;2023-11-21T03:20:05;17.60;65.80
45843;DHT22;31563;51.744;8.252;2023-11-21T03:22:37;17.50;65.80
45843;DHT22;31563;51.744;8.252;2023-11-21T03:25:06;17.50;65.70
45843;DHT22;31563;51.744;8.252;2023-11-21T03:27:38;17.50;65.80
45843;DHT22;31563;51.744;8.252;2023-11-21T03:30:09;17.50;65.70
45843;DHT22;31563;51.744;8.252;2023-11-21T03:32:37;17.50;65.70
45843;DHT22;31563;51.744;8.252;2023-11-21T03:35:06;17.50;65.80
45843;DHT22;31563;51.744;8.252;2023-11-21T03:37:34;17.50;65.80
45843;DHT22;31563;51.744;8.252;2023-11-21T03:40:03;17.50;65.70
45843;DHT22;31563;51.744;8.252;2023-11-21T03:42:31;17.50;65.70
45843;DHT22;31563;51.744;8.252;2023-11-21T03:45:00;17.50;65.80
45843;DHT22;31563;51.744;8.252;2023-11-21T03:47:29;17.50;65.90
45843;DHT22;31563;51.744;8.252;2023-11-21T03:49:58;17.40;65.90
45843;DHT22;31563;51.744;8.252;2023-11-21T03:52:26;17.40;65.90
45843;DHT22;31563;51.744;8.252;2023-11-21T03:54:55;17.40;65.90
45843;DHT22;31563;51.744;8.252;2023-11-21T03:57:23;17.40;66.00
45843;DHT22;31563;51.744;8.252;2023-11-21T03:59:50;17.40;66.00
45843;DHT22;31563;51.744;8.252;2023-11-21T04:02:20;17.50;66.00
45843;DHT22;31563;51.744;8.252;2023-11-21T04:04:48;17.50;65.90
45843;DHT22;31563;51.744;8.252;2023-11-21T04:07:16;17.50;65.90
45843;DHT22;31563;51.744;8.252;2023-11-21T04:09:44;17.40;65.90
45843;DHT22;31563;51.744;8.252;2023-11-21T04:12:12;17.40;65.90
45843;DHT22;31563;51.744;8.252;2023-11-21T04:14:40;17.40;65.90
45843;DHT22;31563;51.744;8.252;2023-11-21T04:17:08;17.40;66.00
45843;DHT22;31563;51.744;8.252;2023-11-21T04:19:37;17.40;66.00
45843;DHT22;31563;51.744;8.252;2023-11-21T04:22:05;17.50;66.00
45843;DHT22;31563;51.744;8.252;2023-11-21T04:24:33;17.40;65.90
45843;DHT22;31563;51.744;8.252;2023-11-21T04:27:01;17.50;65.90
45843;DHT22;31563;51.744;8.252;2023-11-21T04:29:29;17.40;65.80
45843;DHT22;31563;51.744;8.252;2023-11-21T04:31:57;17.50;65.80
45843;DHT22;31563;51.744;8.252;2023-11-21T04:34:25;17.40;65.80
45843;DHT22;31563;51.744;8.252;2023-11-21T04:36:54;17.40;65.80
45843;DHT22;31563;51.744;8.252;2023-11-21T04:39:22;17.40;65.80
45843;DHT22;31563;51.744;8.252;2023-11-21T04:41:51;17.40;65.80
45843;DHT22;31563;51.744;8.252;2023-11-21T04:44:18;17.40;65.90
45843;DHT22;31563;51.744;8.252;2023-11-21T04:46:46;17.40;66.00
45843;DHT22;31563;51.744;8.252;2023-11-21T04:49:14;17.40;66.10
45843;DHT22;31563;51.744;8.252;2023-11-21T04:51:42;17.40;66.10
45843;DHT22;31563;51.744;8.252;2023-11-21T04:54:12;17.50;66.10
45843;DHT22;31563;51.744;8.252;2023-11-21T04:56:40;17.50;65.90
45843;DHT22;31563;51.744;8.252;2023-11-21T04:59:08;17.60;65.90
45843;DHT22;31563;51.744;8.252;2023-11-21T05:01:36;17.70;65.60
45843;DHT22;31563;51.744;8.252;2023-11-21T05:04:05;17.70;66.10
45843;DHT22;31563;51.744;8.252;2023-11-21T05:06:35;17.80;67.30
45843;DHT22;31563;51.744;8.252;2023-11-21T05:09:03;17.90;66.30
45843;DHT22;31563;51.744;8.252;2023-11-21T05:11:32;17.90;66.20
45843;DHT22;31563;51.744;8.252;2023-11-21T05:14:00;17.90;66.00
45843;DHT22;31563;51.744;8.252;2023-11-21T05:16:30;17.90;66.20
45843;DHT22;31563;51.744;8.252;2023-11-21T05:18:58;17.90;66.20
45843;DHT22;31563;51.744;8.252;2023-11-21T05:21:28;17.90;66.30
45843;DHT22;31563;51.744;8.252;2023-11-21T05:23:57;17.90;66.00
45843;DHT22;31563;51.744;8.252;2023-11-21T05:26:25;17.80;64.60
45843;DHT22;31563;51.744;8.252;2023-11-21T05:28:54;17.80;63.50
45843;DHT22;31563;51.744;8.252;2023-11-21T05:31:22;17.60;63.00
45843;DHT22;31563;51.744;8.252;2023-11-21T05:33:50;17.50;62.80
45843;DHT22;31563;51.744;8.252;2023-11-21T05:36:18;17.40;63.00
45843;DHT22;31563;51.744;8.252;2023-11-21T05:38:46;17.30;62.80
45843;DHT22;31563;51.744;8.252;2023-11-21T05:41:15;17.30;63.10
45843;DHT22;31563;51.744;8.252;2023-11-21T05:43:43;17.20;63.40
45843;DHT22;31563;51.744;8.252;2023-11-21T05:46:13;17.30;63.50
45843;DHT22;31563;51.744;8.252;2023-11-21T05:48:41;17.40;63.80
45843;DHT22;31563;51.744;8.252;2023-11-21T05:51:08;17.50;63.50
45843;DHT22;31563;51.744;8.252;2023-11-21T05:53:39;17.50;63.30
45843;DHT22;31563;51.744;8.252;2023-11-21T05:56:07;17.60;63.30
45843;DHT22;31563;51.744;8.252;2023-11-21T05:58:35;17.60;63.30
45843;DHT22;31563;51.744;8.252;2023-11-21T06:01:05;17.70;63.10
45843;DHT22;31563;51.744;8.252;2023-11-21T06:03:35;17.70;63.10
45843;DHT22;31563;51.744;8.252;2023-11-21T06:06:05;17.70;63.00
45843;DHT22;31563;51.744;8.252;2023-11-21T06:08:33;17.70;63.00
45843;DHT22;31563;51.744;8.252;2023-11-21T06:11:01;17.80;64.20
45843;DHT22;31563;51.744;8.252;2023-11-21T06:13:29;17.80;63.50
45843;DHT22;31563;51.744;8.252;2023-11-21T06:15:57;17.90;63.60
45843;DHT22;31563;51.744;8.252;2023-11-21T06:18:25;17.90;63.60
45843;DHT22;31563;51.744;8.252;2023-11-21T06:20:54;17.90;63.40
45843;DHT22;31563;51.744;8.252;2023-11-21T06:23:22;18.00;63.50
45843;DHT22;31563;51.744;8.252;2023-11-21T06:25:50;18.00;63.40
45843;DHT22;31563;51.744;8.252;2023-11-21T06:28:18;18.00;63.40
45843;DHT22;31563;51.744;8.252;2023-11-21T06:30:46;18.00;63.30
45843;DHT22;31563;51.744;8.252;2023-11-21T06:33:15;18.10;63.30
45843;DHT22;31563;51.744;8.252;2023-11-21T06:35:43;18.10;63.20
45843;DHT22;31563;51.744;8.252;2023-11-21T06:38:12;18.10;63.10
45843;DHT22;31563;51.744;8.252;2023-11-21T06:40:40;18.10;63.00
45843;DHT22;31563;51.744;8.252;2023-11-21T06:43:08;18.10;62.90
45843;DHT22;31563;51.744;8.252;2023-11-21T06:45:36;18.20;62.90
45843;DHT22;31563;51.744;8.252;2023-11-21T06:48:04;18.20;62.90
45843;DHT22;31563;51.744;8.252;2023-11-21T06:50:32;18.20;62.80
45843;DHT22;31563;51.744;8.252;2023-11-21T06:53:00;18.20;62.80
45843;DHT22;31563;51.744;8.252;2023-11-21T06:55:32;18.20;62.70
45843;DHT22;31563;51.744;8.252;2023-11-21T06:58:00;18.20;62.50
45843;DHT22;31563;51.744;8.252;2023-11-21T07:00:28;18.20;62.50
45843;DHT22;31563;51.744;8.252;2023-11-21T07:02:56;18.20;62.60
45843;DHT22;31563;51.744;8.252;2023-11-21T07:05:24;18.30;62.60
45843;DHT22;31563;51.744;8.252;2023-11-21T07:07:52;18.30;62.50
45843;DHT22;31563;51.744;8.252;2023-11-21T07:10:21;18.30;62.60
45843;DHT22;31563;51.744;8.252;2023-11-21T07:12:50;18.30;62.50
45843;DHT22;31563;51.744;8.252;2023-11-21T07:15:18;18.30;62.50
45843;DHT22;31563;51.744;8.252;2023-11-21T07:17:46;18.30;62.30
45843;DHT22;31563;51.744;8.252;2023-11-21T07:20:15;18.30;62.30
45843;DHT22;31563;51.744;8.252;2023-11-21T07:22:44;18.40;62.20
45843;DHT22;31563;51.744;8.252;2023-11-21T07:25:12;18.40;62.20
45843;DHT22;31563;51.744;8.252;2023-11-21T07:27:40;18.50;67.70
45843;DHT22;31563;51.744;8.252;2023-11-21T07:30:10;18.60;66.90
45843;DHT22;31563;51.744;8.252;2023-11-21T07:32:40;18.60;67.70
45843;DHT22;31563;51.744;8.252;2023-11-21T07:35:08;18.60;67.40
45843;DHT22;31563;51.744;8.252;2023-11-21T07:37:36;18.60;67.40
45843;DHT22;31563;51.744;8.252;2023-11-21T07:40:06;18.60;67.40
45843;DHT22;31563;51.744;8.252;2023-11-21T07:42:35;18.60;67.20
45843;DHT22;31563;51.744;8.252;2023-11-21T07:45:04;18.60;67.00
45843;DHT22;31563;51.744;8.252;2023-11-21T07:47:33;18.60;67.30
45843;DHT22;31563;51.744;8.252;2023-11-21T07:50:03;18.60;67.10
45843;DHT22;31563;51.744;8.252;2023-11-21T07:52:31;18.60;67.10
45843;DHT22;31563;51.744;8.252;2023-11-21T07:54:59;18.60;67.10
45843;DHT22;31563;51.744;8.252;2023-11-21T07:57:27;18.60;67.00
45843;DHT22;31563;51.744;8.252;2023-11-21T07:59:54;18.70;67.00
45843;DHT22;31563;51.744;8.252;2023-11-21T08:02:22;18.70;67.00
45843;DHT22;31563;51.744;8.252;2023-11-21T08:04:52;18.60;66.90
45843;DHT22;31563;51.744;8.252;2023-11-21T08:07:20;18.60;66.80
45843;DHT22;31563;51.744;8.252;2023-11-21T08:09:48;18.60;66.70
45843;DHT22;31563;51.744;8.252;2023-11-21T08:12:16;18.60;66.70
45843;DHT22;31563;51.744;8.252;2023-11-21T08:14:44;18.70;66.60
45843;DHT22;31563;51.744;8.252;2023-11-21T08:17:13;18.70;66.40
45843;DHT22;31563;51.744;8.252;2023-11-21T08:19:43;18.80;66.10
45843;DHT22;31563;51.744;8.252;2023-11-21T08:22:17;18.80;66.10
45843;DHT22;31563;51.744;8.252;2023-11-21T08:24:45;18.80;65.90
45843;DHT22;31563;51.744;8.252;2023-11-21T08:27:13;18.80;65.70
45843;DHT22;31563;51.744;8.252;2023-11-21T08:29:42;18.80;64.80
45843;DHT22;31563;51.744;8.252;2023-11-21T08:32:10;18.80;65.70
45843;DHT22;31563;51.744;8.252;2023-11-21T08:34:38;18.80;65.70
45843;DHT22;31563;51.744;8.252;2023-11-21T08:37:07;18.80;65.50
45843;DHT22;31563;51.744;8.252;2023-11-21T08:39:36;18.80;65.50
45843;DHT22;31563;51.744;8.252;2023-11-21T08:42:04;18.80;65.50
45843;DHT22;31563;51.744;8.252;2023-11-21T08:44:32;18.80;66.00
45843;DHT22;31563;51.744;8.252;2023-11-21T08:47:00;18.90;65.40
45843;DHT22;31563;51.744;8.252;2023-11-21T08:49:30;18.90;65.30
45843;DHT22;31563;51.744;8.252;2023-11-21T08:51:59;18.90;65.20
45843;DHT22;31563;51.744;8.252;2023-11-21T08:54:27;18.90;65.10
45843;DHT22;31563;51.744;8.252;2023-11-21T08:56:56;19.00;65.00
45843;DHT22;31563;51.744;8.252;2023-11-21T08:59:24;18.90;64.90
45843;DHT22;31563;51.744;8.252;2023-11-21T09:01:52;18.90;64.90
45843;DHT22;31563;51.744;8.252;2023-11-21T09:04:20;18.90;65.00
45843;DHT22;31563;51.744;8.252;2023-11-21T09:06:48;18.90;65.00
45843;DHT22;31563;51.744;8.252;2023-11-21T09:09:16;18.90;65.10
45843;DHT22;31563;51.744;8.252;2023-11-21T09:11:46;18.90;65.00
45843;DHT22;31563;51.744;8.252;2023-11-21T09:14:17;18.90;65.00
45843;DHT22;31563;51.744;8.252;2023-11-21T09:16:45;18.90;65.10
45843;DHT22;31563;51.744;8.252;2023-11-21T09:19:13;18.80;64.80
45843;DHT22;31563;51.744;8.252;2023-11-21T09:21:42;18.90;64.80
45843;DHT22;31563;51.744;8.252;2023-11-21T09:24:09;18.90;64.80
45843;DHT22;31563;51.744;8.252;2023-11-21T09:26:37;18.90;64.70
45843;DHT22;31563;51.744;8.252;2023-11-21T09:29:05;18.90;64.60
45843;DHT22;31563;51.744;8.252;2023-11-21T09:31:36;19.00;65.10
45843;DHT22;31563;51.744;8.252;2023-11-21T09:34:05;19.00;64.40
45843;DHT22;31563;51.744;8.252;2023-11-21T09:36:33;19.00;64.50
45843;DHT22;31563;51.744;8.252;2023-11-21T09:39:01;19.10;64.50
45843;DHT22;31563;51.744;8.252;2023-11-21T09:41:37;19.10;64.30
45843;DHT22;31563;51.744;8.252;2023-11-21T09:44:09;19.10;64.20
45843;DHT22;31563;51.744;8.252;2023-11-21T09:46:42;19.10;64.20
45843;DHT22;31563;51.744;8.252;2023-11-21T09:49:11;19.10;64.00
45843;DHT22;31563;51.744;8.252;2023-11-21T09:51:43;19.10;64.10
45843;DHT22;31563;51.744;8.252;2023-11-21T09:54:11;19.10;64.10
45843;DHT22;31563;51.744;8.252;2023-11-21T09:56:39;19.10;64.00
45843;DHT22;31563;51.744;8.252;2023-11-21T09:59:07;19.10;64.10
45843;DHT22;31563;51.744;8.252;2023-11-21T10:01:36;19.00;64.00
45843;DHT22;31563;51.744;8.252;2023-11-21T10:04:07;18.90;64.10
45843;DHT22;31563;51.744;8.252;2023-11-21T10:06:39;18.90;69.00
45843;DHT22;31563;51.744;8.252;2023-11-21T10:09:09;19.00;68.10
45843;DHT22;31563;51.744;8.252;2023-11-21T10:11:40;19.00;68.40
45843;DHT22;31563;51.744;8.252;2023-11-21T10:14:11;19.00;68.80
45843;DHT22;31563;51.744;8.252;2023-11-21T10:16:41;19.00;68.40
45843;DHT22;31563;51.744;8.252;2023-11-21T10:19:12;19.00;68.50
45843;DHT22;31563;51.744;8.252;2023-11-21T10:21:43;19.10;68.40
45843;DHT22;31563;51.744;8.252;2023-11-21T10:24:11;19.10;68.20
45843;DHT22;31563;51.744;8.252;2023-11-21T10:26:39;19.20;68.10
45843;DHT22;31563;51.744;8.252;2023-11-21T10:29:18;19.20;68.00
45843;DHT22;31563;51.744;8.252;2023-11-21T10:31:49;19.20;67.70
45843;DHT22;31563;51.744;8.252;2023-11-21T10:34:20;19.30;70.00
45843;DHT22;31563;51.744;8.252;2023-11-21T10:36:49;19.30;68.30
45843;DHT22;31563;51.744;8.252;2023-11-21T10:39:17;19.20;65.40
45843;DHT22;31563;51.744;8.252;2023-11-21T10:41:47;19.10;63.30
45843;DHT22;31563;51.744;8.252;2023-11-21T10:44:17;18.90;63.80
45843;DHT22;31563;51.744;8.252;2023-11-21T10:46:49;18.90;63.40
45843;DHT22;31563;51.744;8.252;2023-11-21T10:49:20;18.90;65.10
45843;DHT22;31563;51.744;8.252;2023-11-21T10:51:47;19.00;64.70
45843;DHT22;31563;51.744;8.252;2023-11-21T10:54:18;19.10;64.90
45843;DHT22;31563;51.744;8.252;2023-11-21T10:56:48;19.10;64.50
45843;DHT22;31563;51.744;8.252;2023-11-21T10:59:18;19.20;64.30
45843;DHT22;31563;51.744;8.252;2023-11-21T11:01:47;19.30;64.80
45843;DHT22;31563;51.744;8.252;2023-11-21T11:04:19;19.30;64.20
45843;DHT22;31563;51.744;8.252;2023-11-21T11:06:52;19.30;63.90
45843;DHT22;31563;51.744;8.252;2023-11-21T11:09:22;19.30;63.90
45843;DHT22;31563;51.744;8.252;2023-11-21T11:11:51;19.30;63.80
45843;DHT22;31563;51.744;8.252;2023-11-21T11:14:19;19.30;63.80
45843;DHT22;31563;51.744;8.252;2023-11-21T11:16:53;19.30;63.70
45843;DHT22;31563;51.744;8.252;2023-11-21T11:19:23;19.30;63.80
45843;DHT22;31563;51.744;8.252;2023-11-21T11:21:59;19.40;63.80
45843;DHT22;31563;51.744;8.252;2023-11-21T11:24:45;19.40;63.80
45843;DHT22;31563;51.744;8.252;2023-11-21T11:27:29;19.50;63.70
45843;DHT22;31563;51.744;8.252;2023-11-21T11:30:07;19.40;63.70
45843;DHT22;31563;51.744;8.252;2023-11-21T11:32:46;19.40;63.70
45843;DHT22;31563;51.744;8.252;2023-11-21T11:35:25;19.30;63.90
45843;DHT22;31563;51.744;8.252;2023-11-21T11:37:53;19.30;64.10
45843;DHT22;31563;51.744;8.252;2023-11-21T11:40:22;19.30;64.50
45843;DHT22;31563;51.744;8.252;2023-11-21T11:42:58;19.40;64.20
45843;DHT22;31563;51.744;8.252;2023-11-21T11:45:33;19.40;64.00
45843;DHT22;31563;51.744;8.252;2023-11-21T11:48:03;19.40;64.00
45843;DHT22;31563;51.744;8.252;2023-11-21T11:50:32;19.50;64.00
45843;DHT22;31563;51.744;8.252;2023-11-21T11:53:12;19.50;64.00
45843;DHT22;31563;51.744;8.252;2023-11-21T11:55:40;19.50;64.10
45843;DHT22;31563;51.744;8.252;2023-11-21T11:58:08;19.50;63.80
45843;DHT22;31563;51.744;8.252;2023-11-21T12:00:36;19.50;64.00
45843;DHT22;31563;51.744;8.252;2023-11-21T12:03:07;19.50;64.20
45843;DHT22;31563;51.744;8.252;2023-11-21T12:05:37;19.50;64.10
45843;DHT22;31563;51.744;8.252;2023-11-21T12:08:06;19.40;64.20
45843;DHT22;31563;51.744;8.252;2023-11-21T12:10:37;19.40;64.40
45843;DHT22;31563;51.744;8.252;2023-11-21T12:13:06;19.30;64.40
45843;DHT22;31563;51.744;8.252;2023-11-21T12:15:35;19.30;64.40
45843;DHT22;31563;51.744;8.252;2023-11-21T12:18:04;19.30;64.50
45843;DHT22;31563;51.744;8.252;2023-11-21T12:20:33;19.40;64.60
45843;DHT22;31563;51.744;8.252;2023-11-21T12:23:07;19.50;64.50
45843;DHT22;31563;51.744;8.252;2023-11-21T12:25:36;19.50;64.40
45843;DHT22;31563;51.744;8.252;2023-11-21T12:28:08;19.60;64.20
45843;DHT22;31563;51.744;8.252;2023-11-21T12:30:37;19.60;64.70
45843;DHT22;31563;51.744;8.252;2023-11-21T12:33:06;19.60;64.10
45843;DHT22;31563;51.744;8.252;2023-11-21T12:35:38;19.60;64.10
45843;DHT22;31563;51.744;8.252;2023-11-21T12:38:07;19.50;64.20
45843;DHT22;31563;51.744;8.252;2023-11-21T12:40:35;19.40;64.40
45843;DHT22;31563;51.744;8.252;2023-11-21T12:43:04;19.40;64.60
45843;DHT22;31563;51.744;8.252;2023-11-21T12:45:34;19.30;64.70
45843;DHT22;31563;51.744;8.252;2023-11-21T12:48:05;19.30;64.80
45843;DHT22;31563;51.744;8.252;2023-11-21T12:50:36;19.30;64.90
45843;DHT22;31563;51.744;8.252;2023-11-21T12:53:07;19.30;64.90
45843;DHT22;31563;51.744;8.252;2023-11-21T12:55:37;19.30;64.90
45843;DHT22;31563;51.744;8.252;2023-11-21T12:58:06;19.30;65.00
45843;DHT22;31563;51.744;8.252;2023-11-21T13:00:39;19.40;65.00
45843;DHT22;31563;51.744;8.252;2023-11-21T13:03:10;19.40;64.90
45843;DHT22;31563;51.744;8.252;2023-11-21T13:05:41;19.40;64.90
45843;DHT22;31563;51.744;8.252;2023-11-21T13:08:15;19.40;65.00
45843;DHT22;31563;51.744;8.252;2023-11-21T13:10:49;19.50;64.80
45843;DHT22;31563;51.744;8.252;2023-11-21T13:13:17;19.60;64.60
45843;DHT22;31563;51.744;8.252;2023-11-21T13:15:52;19.60;64.40
45843;DHT22;31563;51.744;8.252;2023-11-21T13:18:22;19.50;64.50
45843;DHT22;31563;51.744;8.252;2023-11-21T13:20:50;19.50;64.70
45843;DHT22;31563;51.744;8.252;2023-11-21T13:23:19;19.50;64.70
45843;DHT22;31563;51.744;8.252;2023-11-21T13:25:47;19.50;64.70
45843;DHT22;31563;51.744;8.252;2023-11-21T13:28:27;19.50;64.80
45843;DHT22;31563;51.744;8.252;2023-11-21T13:31:00;19.40;64.90
45843;DHT22;31563;51.744;8.252;2023-11-21T13:33:36;19.40;65.00
45843;DHT22;31563;51.744;8.252;2023-11-21T13:36:06;19.50;65.00
45843;DHT22;31563;51.744;8.252;2023-11-21T13:38:37;19.50;64.90
45843;DHT22;31563;51.744;8.252;2023-11-21T13:41:09;19.60;64.70
45843;DHT22;31563;51.744;8.252;2023-11-21T13:43:39;19.70;64.60
45843;DHT22;31563;51.744;8.252;2023-11-21T13:46:10;19.70;64.60
45843;DHT22;31563;51.744;8.252;2023-11-21T13:48:42;19.70;64.60
45843;DHT22;31563;51.744;8.252;2023-11-21T13:51:17;19.70;64.60
45843;DHT22;31563;51.744;8.252;2023-11-21T13:53:48;19.60;64.70
45843;DHT22;31563;51.744;8.252;2023-11-21T13:56:18;19.60;64.90
45843;DHT22;31563;51.744;8.252;2023-11-21T13:58:50;19.50;64.80
45843;DHT22;31563;51.744;8.252;2023-11-21T14:01:20;19.50;65.10
45843;DHT22;31563;51.744;8.252;2023-11-21T14:04:11;19.40;65.70
45843;DHT22;31563;51.744;8.252;2023-11-21T14:06:48;19.40;65.40
45843;DHT22;31563;51.744;8.252;2023-11-21T14:09:20;19.30;65.40
45843;DHT22;31563;51.744;8.252;2023-11-21T14:11:52;19.30;64.40
45843;DHT22;31563;51.744;8.252;2023-11-21T14:14:22;19.30;62.80
45843;DHT22;31563;51.744;8.252;2023-11-21T14:16:51;19.20;63.50
45843;DHT22;31563;51.744;8.252;2023-11-21T14:19:19;19.20;64.00
45843;DHT22;31563;51.744;8.252;2023-11-21T14:21:48;19.20;64.10
45843;DHT22;31563;51.744;8.252;2023-11-21T14:24:17;19.10;64.20
45843;DHT22;31563;51.744;8.252;2023-11-21T14:26:46;19.10;64.30
45843;DHT22;31563;51.744;8.252;2023-11-21T14:29:15;19.20;64.40
45843;DHT22;31563;51.744;8.252;2023-11-21T14:31:47;19.20;64.40
45843;DHT22;31563;51.744;8.252;2023-11-21T14:34:15;19.20;64.40
45843;DHT22;31563;51.744;8.252;2023-11-21T14:36:48;19.20;64.40
45843;DHT22;31563;51.744;8.252;2023-11-21T14:39:17;19.20;64.40
45843;DHT22;31563;51.744;8.252;2023-11-21T14:41:50;19.20;64.60
45843;DHT22;31563;51.744;8.252;2023-11-21T14:44:19;19.20;64.70
45843;DHT22;31563;51.744;8.252;2023-11-21T14:46:50;19.20;64.80
45843;DHT22;31563;51.744;8.252;2023-11-21T14:49:20;19.20;64.90
45843;DHT22;31563;51.744;8.252;2023-11-21T14:51:51;19.10;64.90
45843;DHT22;31563;51.744;8.252;2023-11-21T14:54:29;19.10;65.10
45843;DHT22;31563;51.744;8.252;2023-11-21T14:57:07;19.30;69.80
45843;DHT22;31563;51.744;8.252;2023-11-21T14:59:43;19.30;69.80
45843;DHT22;31563;51.744;8.252;2023-11-21T15:02:12;19.30;72.60
45843;DHT22;31563;51.744;8.252;2023-11-21T15:04:47;19.30;71.20
45843;DHT22;31563;51.744;8.252;2023-11-21T15:07:15;19.20;71.30
45843;DHT22;31563;51.744;8.252;2023-11-21T15:09:44;19.20;71.20
45843;DHT22;31563;51.744;8.252;2023-11-21T15:12:12;19.20;71.20
45843;DHT22;31563;51.744;8.252;2023-11-21T15:14:43;19.10;71.10
45843;DHT22;31563;51.744;8.252;2023-11-21T15:17:12;19.10;71.20
45843;DHT22;31563;51.744;8.252;2023-11-21T15:19:46;19.10;71.10
45843;DHT22;31563;51.744;8.252;2023-11-21T15:22:14;19.10;67.70
45843;DHT22;31563;51.744;8.252;2023-11-21T15:24:44;18.90;68.40
45843;DHT22;31563;51.744;8.252;2023-11-21T15:27:13;18.90;69.30
45843;DHT22;31563;51.744;8.252;2023-11-21T15:29:42;18.90;69.20
45843;DHT22;31563;51.744;8.252;2023-11-21T15:32:10;18.90;69.20
45843;DHT22;31563;51.744;8.252;2023-11-21T15:34:39;18.90;69.10
45843;DHT22;31563;51.744;8.252;2023-11-21T15:37:08;18.90;69.10
45843;DHT22;31563;51.744;8.252;2023-11-21T15:39:38;19.00;69.10
45843;DHT22;31563;51.744;8.252;2023-11-21T15:42:08;18.90;69.10
45843;DHT22;31563;51.744;8.252;2023-11-21T15:44:36;18.90;69.10